Time;durP1;ratioP1;P1;durP2;ratioP2;P2;SDS_P1;SDS_P2;PMS_P1;PMS_P2;Temp;Humidity;BMP_temperature;BMP_pressure;BME280_temperature;BME280_humidity;BME280_pressure;Samples;Min_cycle;Max_cycle;Signal;HPM_P1;HPM_P2
2021/12/10 00:02:12;;;;;;;;;15.50;11.25;;;;;3.75;97.58;99609.44;5030213;28;11651;-71
2021/12/10 00:04:41;;;;;;;;;17.25;16.00;;;;;3.75;97.21;99602.25;5030147;28;11583;-70
2021/12/10 00:07:16;;;;;;;;;13.75;12.50;;;;;3.75;97.09;99582.66;5021468;28;11517;-67
2021/12/10 00:09:50;;;;;;;;;17.00;13.00;;;;;3.76;97.15;99584.34;5028709;28;11486;-69
2021/12/10 00:12:22;;;;;;;;;14.25;12.75;;;;;3.72;96.80;99581.19;5030154;28;11517;-70
2021/12/10 00:14:50;;;;;;;;;15.50;11.75;;;;;3.68;96.94;99578.00;5030147;28;11633;-70
2021/12/10 00:17:18;;;;;;;;;17.25;15.50;;;;;3.71;96.74;99580.31;5022457;28;11528;-69
2021/12/10 00:19:49;;;;;;;;;16.75;13.50;;;;;3.62;96.56;99567.16;5029839;28;12329;-72
2021/12/10 00:22:49;;;;;;;;;12.50;12.25;;;;;3.66;96.68;99566.63;5030024;28;11678;-71
2021/12/10 00:25:19;;;;;;;;;25.75;17.00;;;;;3.61;96.46;99560.16;5037074;28;11571;-70
2021/12/10 00:27:48;;;;;;;;;22.75;12.50;;;;;3.54;96.35;99559.19;5029336;28;11639;-70
2021/12/10 00:30:28;;;;;;;;;13.50;12.00;;;;;3.59;96.67;99557.66;5029523;28;11507;-69
2021/12/10 00:33:10;;;;;;;;;12.50;12.50;;;;;3.58;96.40;99558.66;5027422;28;11677;-68
2021/12/10 00:35:39;;;;;;;;;16.50;12.75;;;;;3.58;96.41;99539.94;5024870;28;11954;-69
2021/12/10 00:38:08;;;;;;;;;17.50;16.75;;;;;3.58;96.31;99545.28;5029286;28;11627;-70
2021/12/10 00:40:36;;;;;;;;;15.50;15.25;;;;;3.59;96.22;99536.25;5021406;28;12626;-71
2021/12/10 00:43:03;;;;;;;;;18.00;15.75;;;;;3.59;96.29;99538.09;5009911;28;11504;-70
2021/12/10 00:45:30;;;;;;;;;16.75;15.75;;;;;3.58;96.34;99539.09;5023359;28;11507;-70
2021/12/10 00:47:57;;;;;;;;;16.00;15.50;;;;;3.56;96.03;99539.28;5029426;28;11627;-70
2021/12/10 00:50:30;;;;;;;;;19.75;18.25;;;;;3.55;96.02;99529.59;5028603;28;11578;-70
2021/12/10 00:52:57;;;;;;;;;23.25;22.00;;;;;3.55;95.86;99526.91;5029504;28;11618;-70
2021/12/10 00:55:24;;;;;;;;;20.25;16.50;;;;;3.55;95.79;99510.84;5029340;28;11616;-70
2021/12/10 00:57:53;;;;;;;;;21.50;19.00;;;;;3.55;95.69;99516.22;5029166;28;12201;-71
2021/12/10 01:00:34;;;;;;;;;23.25;18.00;;;;;3.55;95.70;99518.06;5029357;28;11623;-71
2021/12/10 01:03:03;;;;;;;;;20.75;20.00;;;;;3.49;95.82;99516.91;5029462;28;11514;-70
2021/12/10 01:05:29;;;;;;;;;18.25;18.25;;;;;3.50;95.90;99504.38;5021493;28;11632;-70
2021/12/10 01:07:56;;;;;;;;;25.25;21.50;;;;;3.47;95.81;99507.38;5026863;28;12374;-71
2021/12/10 01:10:30;;;;;;;;;27.50;25.00;;;;;3.43;95.46;99482.00;5031015;28;11549;-69
2021/12/10 01:13:00;;;;;;;;;27.75;24.00;;;;;3.48;95.47;99474.28;5033564;28;12394;-69
2021/12/10 01:24:16;;;;;;;;;22.50;20.00;;;;;3.48;95.22;99464.44;5032451;28;12214;-70
2021/12/10 01:29:32;;;;;;;;;19.00;17.00;;;;;3.48;94.94;99460.91;5031617;28;11655;-69
2021/12/10 01:32:00;;;;;;;;;26.00;22.75;;;;;3.43;94.94;99461.41;5033164;28;11517;-72
2021/12/10 01:34:27;;;;;;;;;23.50;21.00;;;;;3.41;95.12;99460.78;5032931;28;11513;-69
2021/12/10 01:36:54;;;;;;;;;24.50;23.75;;;;;3.35;94.72;99450.78;5032999;28;11637;-70
2021/12/10 01:39:28;;;;;;;;;24.75;23.75;;;;;3.38;95.08;99445.06;5032373;28;11660;-69
2021/12/10 01:42:13;;;;;;;;;28.25;23.75;;;;;3.32;94.64;99437.78;5025929;28;11584;-70
2021/12/10 01:44:43;;;;;;;;;26.00;21.50;;;;;3.29;94.37;99430.94;5019825;28;11592;-69
2021/12/10 01:47:13;;;;;;;;;24.00;19.50;;;;;3.29;94.49;99432.78;5024525;28;12313;-69
2021/12/10 01:49:41;;;;;;;;;21.00;20.00;;;;;3.31;94.89;99428.91;5032880;28;11497;-70
2021/12/10 01:52:07;;;;;;;;;21.00;21.00;;;;;3.29;94.78;99428.25;5029586;28;11532;-70
2021/12/10 01:54:40;;;;;;;;;20.50;20.50;;;;;3.33;95.04;99426.91;5018713;28;11576;-70
2021/12/10 01:57:08;;;;;;;;;27.75;26.50;;;;;3.31;94.55;99412.03;5032627;28;11553;-68
2021/12/10 01:59:37;;;;;;;;;27.00;24.50;;;;;3.30;94.91;99405.84;5030912;28;11540;-70
2021/12/10 02:02:12;;;;;;;;;27.50;24.00;;;;;3.24;94.49;99406.56;5032461;28;11649;-70
2021/12/10 02:04:41;;;;;;;;;31.25;28.25;;;;;3.27;95.08;99392.00;5032382;28;11591;-70
2021/12/10 02:07:11;;;;;;;;;35.50;25.00;;;;;3.26;94.99;99388.50;5031899;28;12351;-69
2021/12/10 02:09:38;;;;;;;;;22.50;20.75;;;;;3.23;94.89;99391.53;5026549;28;11535;-70
2021/12/10 02:12:05;;;;;;;;;24.75;24.25;;;;;3.21;94.90;99384.69;5031654;28;11592;-70
2021/12/10 02:14:32;;;;;;;;;24.75;22.50;;;;;3.12;94.64;99378.56;5034988;28;11659;-69
2021/12/10 02:16:59;;;;;;;;;24.75;23.25;;;;;3.09;94.86;99386.94;5044787;28;11659;-70
2021/12/10 02:19:28;;;;;;;;;32.25;28.50;;;;;3.10;95.28;99380.56;5033470;28;12367;-70
2021/12/10 02:21:55;;;;;;;;;22.00;19.75;;;;;3.13;94.95;99374.88;5025085;28;11666;-70
2021/12/10 02:24:22;;;;;;;;;30.00;22.25;;;;;3.12;95.00;99361.69;5030622;28;11630;-69
2021/12/10 02:26:54;;;;;;;;;35.00;29.25;;;;;3.13;94.75;99363.34;5023620;28;11600;-70
2021/12/10 02:29:24;;;;;;;;;32.75;27.25;;;;;3.07;94.42;99364.91;5030915;28;11536;-71
2021/12/10 02:31:53;;;;;;;;;27.75;23.25;;;;;3.07;94.67;99363.06;5023046;28;11540;-70
2021/12/10 02:34:23;;;;;;;;;25.50;22.25;;;;;3.08;94.66;99355.88;5031532;28;11676;-71
2021/12/10 02:36:49;;;;;;;;;29.75;26.50;;;;;3.00;94.47;99345.25;5035514;28;11509;-70
2021/12/10 02:39:21;;;;;;;;;26.00;20.00;;;;;3.00;94.49;99337.22;5033942;28;11608;-70
2021/12/10 02:41:48;;;;;;;;;23.75;19.25;;;;;3.05;94.41;99335.66;5032709;28;11527;-71
2021/12/10 02:44:18;;;;;;;;;21.75;18.50;;;;;3.04;94.35;99339.34;5030648;28;11521;-71
2021/12/10 02:46:44;;;;;;;;;21.25;17.50;;;;;3.03;94.03;99326.16;5031255;28;11504;-68
2021/12/10 02:49:12;;;;;;;;;16.50;15.00;;;;;2.99;94.14;99325.69;5029022;28;12396;-70
2021/12/10 02:51:40;;;;;;;;;12.50;12.25;;;;;2.97;93.88;99322.34;5031079;28;11529;-70
2021/12/10 02:54:09;;;;;;;;;19.25;13.75;;;;;2.93;94.41;99313.00;5031186;28;11564;-71
2021/12/10 02:56:37;;;;;;;;;17.75;16.00;;;;;2.94;94.18;99308.50;5031649;28;11528;-71
2021/12/10 02:59:04;;;;;;;;;18.00;16.50;;;;;2.93;94.31;99304.16;5031359;28;11647;-71
2021/12/10 03:01:40;;;;;;;;;19.00;18.50;;;;;2.92;94.03;99307.84;5031337;28;11637;-71
2021/12/10 03:04:09;;;;;;;;;16.50;13.75;;;;;2.93;94.22;99299.66;5031130;28;12295;-71
2021/12/10 03:06:57;;;;;;;;;12.50;12.00;;;;;2.97;93.98;99294.78;5023782;28;11481;-71
2021/12/10 03:09:27;;;;;;;;;11.50;11.50;;;;;2.95;93.77;99286.94;5015781;28;11497;-71
2021/12/10 03:11:56;;;;;;;;;14.00;10.75;;;;;2.95;93.59;99289.59;5030929;28;11626;-71
2021/12/10 03:14:27;;;;;;;;;10.00;10.00;;;;;3.00;93.64;99281.06;5029878;28;11472;-72
2021/12/10 03:16:56;;;;;;;;;10.25;10.00;;;;;2.91;93.42;99279.47;5030880;28;11482;-71
2021/12/10 03:19:23;;;;;;;;;10.75;10.25;;;;;2.93;93.61;99280.09;5030501;28;11517;-71
2021/12/10 03:21:51;;;;;;;;;12.75;12.00;;;;;2.93;93.35;99283.63;5031076;28;11600;-70
2021/12/10 03:24:22;;;;;;;;;13.50;11.00;;;;;2.96;93.21;99271.72;5030146;28;11492;-70
2021/12/10 03:26:51;;;;;;;;;14.25;12.00;;;;;2.99;93.48;99264.22;5024631;28;11514;-70
2021/12/10 03:29:23;;;;;;;;;10.50;10.00;;;;;3.01;93.18;99264.84;5030689;28;11603;-70
2021/12/10 03:31:50;;;;;;;;;12.00;8.00;;;;;3.00;93.05;99257.03;5029788;28;11465;-71
2021/12/10 03:34:19;;;;;;;;;11.50;6.75;;;;;3.04;92.71;99248.47;5032919;28;11450;-71
2021/12/10 03:36:50;;;;;;;;;9.00;9.00;;;;;3.10;92.75;99241.56;5032971;28;11474;-69
2021/12/10 03:39:23;;;;;;;;;9.75;8.75;;;;;3.10;92.83;99238.88;5032079;28;11432;-71
2021/12/10 03:41:52;;;;;;;;;8.75;8.75;;;;;3.11;92.51;99227.16;5032468;28;11504;-73
2021/12/10 03:44:18;;;;;;;;;9.00;8.25;;;;;3.16;92.27;99218.59;5034480;28;11457;-70
2021/12/10 03:46:45;;;;;;;;;8.25;8.00;;;;;3.16;91.89;99216.75;5032024;28;11609;-71
2021/12/10 03:49:13;;;;;;;;;10.00;9.00;;;;;3.19;91.84;99212.88;5030885;28;11453;-71
2021/12/10 03:51:40;;;;;;;;;10.25;5.50;;;;;3.20;91.69;99210.03;5032566;28;11630;-72
2021/12/10 03:54:07;;;;;;;;;9.50;7.50;;;;;3.21;91.68;99203.66;5029795;28;11588;-71
2021/12/10 03:56:36;;;;;;;;;13.75;11.00;;;;;3.18;91.32;99190.66;5030200;28;11593;-71
2021/12/10 03:59:08;;;;;;;;;9.00;9.00;;;;;3.23;91.23;99204.34;5019983;28;11505;-70
2021/12/10 04:01:38;;;;;;;;;8.00;4.25;;;;;3.28;91.26;99198.44;5033853;28;11438;-71
2021/12/10 04:04:09;;;;;;;;;6.75;4.25;;;;;3.27;91.07;99188.75;5029845;28;11582;-71
2021/12/10 04:06:36;;;;;;;;;5.25;5.00;;;;;3.25;91.10;99183.59;5034737;28;11455;-71
2021/12/10 04:09:04;;;;;;;;;9.00;7.75;;;;;3.30;90.75;99185.72;5028370;28;11566;-70
2021/12/10 04:11:32;;;;;;;;;7.50;5.50;;;;;3.25;90.21;99191.63;5029285;28;11524;-72
2021/12/10 04:13:59;;;;;;;;;4.50;4.00;;;;;3.25;90.23;99186.28;5029023;28;11579;-71
2021/12/10 04:16:29;;;;;;;;;3.50;3.50;;;;;3.29;90.24;99171.50;5050242;28;11217;-71
2021/12/10 04:18:57;;;;;;;;;7.75;6.75;;;;;3.33;89.75;99177.31;5035641;28;11547;-70
2021/12/10 04:21:24;;;;;;;;;6.50;5.00;;;;;3.38;89.24;99167.72;5037668;28;11489;-71
2021/12/10 04:23:51;;;;;;;;;7.00;7.00;;;;;3.36;89.08;99166.25;5038629;28;11567;-69
2021/12/10 04:26:20;;;;;;;;;7.00;7.00;;;;;3.33;88.68;99164.78;5030289;28;11562;-71
2021/12/10 04:28:47;;;;;;;;;5.00;3.00;;;;;3.32;88.97;99149.75;5013068;28;11432;-71
2021/12/10 04:31:14;;;;;;;;;4.00;4.00;;;;;3.39;89.31;99163.22;5028899;28;11131;-70
2021/12/10 04:33:41;;;;;;;;;6.50;6.50;;;;;3.37;89.05;99150.03;5030139;28;11483;-69
2021/12/10 04:36:08;;;;;;;;;5.50;3.75;;;;;3.36;88.74;99147.53;5029693;28;11582;-69
2021/12/10 04:38:35;;;;;;;;;7.00;4.50;;;;;3.36;88.58;99136.84;5029746;28;12198;-69
2021/12/10 04:41:07;;;;;;;;;5.75;5.75;;;;;3.35;88.88;99137.84;5028176;28;11497;-69
2021/12/10 04:43:35;;;;;;;;;5.00;2.00;;;;;3.39;88.73;99129.25;5029597;28;12297;-69
2021/12/10 04:46:02;;;;;;;;;2.75;2.00;;;;;3.39;88.63;99123.91;5021179;28;11492;-71
2021/12/10 04:48:41;;;;;;;;;2.00;2.00;;;;;3.44;88.49;99120.69;5029282;28;11803;-70
2021/12/10 04:51:08;;;;;;;;;5.00;3.50;;;;;3.47;88.38;99119.47;5024007;28;11452;-70
2021/12/10 04:53:35;;;;;;;;;8.00;6.50;;;;;3.46;88.04;99115.16;5028756;28;11220;-70
2021/12/10 04:56:01;;;;;;;;;8.00;5.00;;;;;3.43;87.68;99115.53;5028786;28;11583;-70
2021/12/10 04:58:28;;;;;;;;;5.25;5.00;;;;;3.37;88.59;99107.22;5029542;28;12549;-69
2021/12/10 05:00:54;;;;;;;;;4.25;4.25;;;;;3.42;89.08;99114.69;5018375;28;11238;-70
2021/12/10 05:03:21;;;;;;;;;3.50;3.50;;;;;3.44;89.12;99114.50;5014018;28;11444;-69
2021/12/10 05:05:47;;;;;;;;;5.00;5.00;;;;;3.43;89.13;99102.16;5018695;28;11116;-69
2021/12/10 05:08:14;;;;;;;;;5.00;4.00;;;;;3.47;89.40;99108.78;5008178;28;11467;-69
2021/12/10 05:10:41;;;;;;;;;4.75;2.00;;;;;3.44;89.00;99101.13;5024537;28;11521;-70
2021/12/10 05:13:08;;;;;;;;;4.00;4.00;;;;;3.47;88.77;99098.94;5029151;28;11519;-69
2021/12/10 05:15:38;;;;;;;;;2.00;2.00;;;;;3.50;88.45;99085.19;5029149;28;11328;-70
2021/12/10 05:18:08;;;;;;;;;5.25;3.50;;;;;3.47;88.36;99093.59;5029228;28;12309;-70
2021/12/10 05:20:38;;;;;;;;;5.75;4.50;;;;;3.42;89.08;99092.47;5028889;28;11455;-70
2021/12/10 05:23:05;;;;;;;;;5.00;5.00;;;;;3.43;88.92;99083.41;5027545;28;11483;-69
2021/12/10 05:25:31;;;;;;;;;5.25;5.00;;;;;3.39;89.69;99088.31;5029146;28;11480;-69
2021/12/10 05:27:59;;;;;;;;;4.00;4.00;;;;;3.38;89.74;99079.47;5030589;28;12300;-70
2021/12/10 05:30:29;;;;;;;;;4.00;4.00;;;;;3.36;90.31;99091.38;5025874;28;11572;-70
2021/12/10 05:32:56;;;;;;;;;5.00;4.00;;;;;3.41;91.05;99088.97;5029153;28;11479;-70
2021/12/10 05:35:23;;;;;;;;;2.00;2.00;;;;;3.44;91.46;99079.72;5029400;28;11448;-69
2021/12/10 05:37:49;;;;;;;;;2.00;2.00;;;;;3.39;91.40;99082.97;5027838;28;11451;-70
2021/12/10 05:40:19;;;;;;;;;2.00;2.00;;;;;3.38;91.48;99075.97;5034577;28;11452;-70
2021/12/10 05:42:46;;;;;;;;;2.00;2.00;;;;;3.32;91.35;99069.53;5028545;28;11504;-69
2021/12/10 05:45:19;;;;;;;;;1.00;1.00;;;;;3.36;91.28;99075.31;5030588;28;11479;-70
2021/12/10 05:47:46;;;;;;;;;3.00;3.00;;;;;3.32;91.01;99076.72;5038655;28;11869;-70
2021/12/10 05:50:15;;;;;;;;;6.75;3.00;;;;;3.27;91.33;99071.94;5026865;28;11224;-69
2021/12/10 05:52:42;;;;;;;;;3.00;2.00;;;;;3.32;91.88;99074.88;5027136;28;11467;-71
2021/12/10 05:55:09;;;;;;;;;1.00;1.00;;;;;3.31;91.50;99069.72;5020595;28;11449;-69
2021/12/10 05:57:36;;;;;;;;;4.25;2.00;;;;;3.35;91.44;99071.81;5016157;28;11558;-71
2021/12/10 06:00:11;;;;;;;;;1.50;1.50;;;;;3.36;91.46;99061.94;5029231;28;11483;-71
2021/12/10 06:02:38;;;;;;;;;2.50;2.00;;;;;3.39;90.84;99073.09;5028330;28;11210;-71
2021/12/10 06:05:07;;;;;;;;;4.50;2.00;;;;;3.39;90.69;99073.09;5032190;28;11519;-71
2021/12/10 06:07:38;;;;;;;;;5.00;3.00;;;;;3.37;90.54;99067.09;5032057;28;11568;-70
2021/12/10 06:10:07;;;;;;;;;1.00;1.00;;;;;3.35;90.40;99062.97;5031849;28;11460;-70
2021/12/10 06:12:34;;;;;;;;;4.25;1.75;;;;;3.37;90.62;99068.94;5031688;28;11471;-71
2021/12/10 06:15:00;;;;;;;;;4.25;4.00;;;;;3.33;90.46;99060.47;5022313;28;11272;-71
2021/12/10 06:17:27;;;;;;;;;4.00;2.50;;;;;3.36;90.92;99062.78;5032274;28;11260;-70
2021/12/10 06:19:54;;;;;;;;;2.00;2.00;;;;;3.42;90.67;99063.03;5030548;28;11538;-70
2021/12/10 06:22:21;;;;;;;;;2.50;2.50;;;;;3.37;90.28;99059.09;5025372;28;11578;-70
2021/12/10 06:24:47;;;;;;;;;2.00;2.00;;;;;3.43;90.46;99065.53;5031953;28;11444;-70
2021/12/10 06:27:13;;;;;;;;;4.75;4.00;;;;;3.45;90.20;99068.00;5031388;28;11195;-70
2021/12/10 06:29:42;;;;;;;;;5.00;4.00;;;;;3.50;90.23;99068.31;5037502;28;11549;-70
2021/12/10 06:32:10;;;;;;;;;1.25;1.25;;;;;3.42;90.21;99068.38;5029098;28;11340;-70
2021/12/10 06:34:37;;;;;;;;;2.00;2.00;;;;;3.46;90.29;99064.31;5030636;28;11906;-71
2021/12/10 06:37:06;;;;;;;;;3.50;1.75;;;;;3.49;89.73;99070.16;5031073;28;11448;-70
2021/12/10 06:39:33;;;;;;;;;1.25;1.25;;;;;3.50;89.38;99063.78;5033460;28;11130;-70
2021/12/10 06:42:00;;;;;;;;;1.00;1.00;;;;;3.52;89.12;99060.91;5048921;23;11142;-71
2021/12/10 06:44:26;;;;;;;;;4.00;2.00;;;;;3.51;88.94;99061.94;5031315;28;11431;-72
2021/12/10 06:46:53;;;;;;;;;7.00;4.00;;;;;3.48;88.71;99060.47;5029814;28;11216;-72
2021/12/10 06:49:20;;;;;;;;;1.00;1.00;;;;;3.53;89.09;99073.28;5021903;28;12135;-71
2021/12/10 06:51:47;;;;;;;;;3.75;3.00;;;;;3.50;88.58;99076.34;5015187;28;11465;-73
2021/12/10 06:54:14;;;;;;;;;1.00;0.75;;;;;3.49;88.90;99072.81;5011451;28;11505;-71
2021/12/10 06:56:41;;;;;;;;;1.00;1.00;;;;;3.55;89.12;99074.75;5026794;28;11653;-72
2021/12/10 06:59:09;;;;;;;;;1.00;1.00;;;;;3.56;88.82;99078.25;5002410;28;11204;-70
2021/12/10 07:01:39;;;;;;;;;3.50;3.50;;;;;3.55;88.78;99068.56;5011546;28;11212;-71
2021/12/10 07:04:11;;;;;;;;;4.50;3.00;;;;;3.57;88.81;99071.88;5000093;28;11145;-72
2021/12/10 07:06:41;;;;;;;;;3.75;1.25;;;;;3.58;89.11;99073.53;5011792;28;11504;-70
2021/12/10 07:09:16;;;;;;;;;2.00;2.00;;;;;3.55;88.89;99077.41;5026070;28;11027;-70
2021/12/10 07:11:43;;;;;;;;;1.25;1.25;;;;;3.53;88.67;99071.44;5009851;28;11157;-71
2021/12/10 07:14:10;;;;;;;;;3.25;3.00;;;;;3.50;88.53;99076.34;5026444;28;11460;-71
2021/12/10 07:16:37;;;;;;;;;3.50;2.00;;;;;3.49;88.91;99069.31;5025162;28;11831;-72
2021/12/10 07:19:05;;;;;;;;;2.00;2.00;;;;;3.47;88.67;99071.31;5001091;28;11217;-72
2021/12/10 07:21:33;;;;;;;;;2.00;1.75;;;;;3.45;88.86;99073.34;5012076;28;11135;-71
2021/12/10 07:24:04;;;;;;;;;1.00;1.00;;;;;3.49;88.69;99078.19;5025990;28;10898;-72
2021/12/10 07:26:32;;;;;;;;;3.50;1.25;;;;;3.48;88.63;99081.88;5004608;28;10958;-71
2021/12/10 07:28:59;;;;;;;;;4.00;4.00;;;;;3.43;88.16;99078.91;5008997;28;11138;-72
2021/12/10 07:31:26;;;;;;;;;4.00;4.00;;;;;3.47;88.90;99085.56;5009581;28;11130;-72
2021/12/10 07:33:54;;;;;;;;;2.50;2.50;;;;;3.45;88.28;99086.75;4993565;28;11322;-71
2021/12/10 07:36:23;;;;;;;;;4.00;4.00;;;;;3.35;88.63;99089.72;5005903;28;11121;-70
2021/12/10 07:38:50;;;;;;;;;1.75;1.75;;;;;3.33;88.88;99089.91;5024194;28;11466;-72
2021/12/10 07:41:17;;;;;;;;;3.50;3.50;;;;;3.33;88.83;99089.91;5023637;28;11052;-71
2021/12/10 07:43:44;;;;;;;;;3.00;3.00;;;;;3.40;88.48;99093.47;5009034;28;12091;-71
2021/12/10 07:46:14;;;;;;;;;4.00;2.50;;;;;3.42;88.76;99092.47;5007990;28;11204;-71
2021/12/10 07:48:43;;;;;;;;;2.50;1.00;;;;;3.39;88.59;99088.31;5005971;28;11091;-71
2021/12/10 07:51:15;;;;;;;;;1.00;1.00;;;;;3.36;88.67;99102.06;5014550;28;11158;-72
2021/12/10 07:53:44;;;;;;;;;0.25;0.25;;;;;3.30;88.43;99095.63;5005038;28;11080;-71
2021/12/10 07:56:12;;;;;;;;;1.50;1.50;;;;;3.33;88.58;99095.25;5012187;28;10973;-72
2021/12/10 07:58:42;;;;;;;;;3.50;3.50;;;;;3.28;88.35;99100.31;5008112;28;11162;-70
2021/12/10 08:01:14;;;;;;;;;1.75;1.25;;;;;3.36;88.29;99094.03;5006718;28;11216;-71
2021/12/10 08:03:41;;;;;;;;;5.00;4.50;;;;;3.33;88.33;99097.09;5009186;28;11837;-71
2021/12/10 08:06:08;;;;;;;;;4.50;4.00;;;;;3.33;88.43;99095.25;5013057;28;11464;-71
2021/12/10 08:08:35;;;;;;;;;1.50;1.50;;;;;3.35;88.01;99098.56;5009578;28;11612;-71
2021/12/10 08:11:04;;;;;;;;;2.00;2.00;;;;;3.31;87.89;99099.94;5012540;28;11461;-72
2021/12/10 08:13:30;;;;;;;;;4.00;4.00;;;;;3.37;87.82;99106.41;5019432;28;11441;-72
2021/12/10 08:15:57;;;;;;;;;4.00;4.00;;;;;3.36;87.75;99104.75;5006225;28;11548;-72
2021/12/10 08:18:24;;;;;;;;;9.00;8.00;;;;;3.37;87.62;99101.88;5002712;28;11546;-70
2021/12/10 08:20:54;;;;;;;;;3.75;3.75;;;;;3.42;87.84;99111.19;5001670;28;11460;-72
2021/12/10 08:23:21;;;;;;;;;5.25;4.75;;;;;3.46;88.02;99105.28;4999597;28;11484;-73
2021/12/10 08:25:48;;;;;;;;;7.00;5.25;;;;;3.44;87.95;99104.63;5003029;28;11542;-72
2021/12/10 08:28:15;;;;;;;;;4.50;4.50;;;;;3.49;87.80;99106.78;5022122;28;12191;-71
2021/12/10 08:30:42;;;;;;;;;7.00;5.00;;;;;3.50;87.21;99098.56;5019879;28;11576;-73
2021/12/10 08:33:14;;;;;;;;;6.00;6.00;;;;;3.49;87.21;99101.41;4999454;28;11595;-73
2021/12/10 08:35:50;;;;;;;;;7.25;6.00;;;;;3.51;87.23;99110.09;5012799;28;11459;-72
2021/12/10 08:38:16;;;;;;;;;9.00;5.25;;;;;3.44;87.21;99109.16;5003509;28;11509;-72
2021/12/10 08:40:56;;;;;;;;;6.25;4.50;;;;;3.49;87.60;99106.78;5000368;28;11613;-72
2021/12/10 08:43:24;;;;;;;;;4.50;4.25;;;;;3.52;87.36;99114.44;5018648;28;11479;-72
2021/12/10 08:45:52;;;;;;;;;4.50;4.00;;;;;3.78;88.66;99112.06;5000564;28;11458;-72
2021/12/10 08:48:20;;;;;;;;;4.25;3.00;;;;;3.71;87.59;99122.69;5005949;28;11531;-72
2021/12/10 08:50:47;;;;;;;;;5.75;5.75;;;;;3.67;87.05;99120.56;5014480;28;11565;-71
2021/12/10 08:53:14;;;;;;;;;8.00;8.00;;;;;3.58;86.84;99122.53;5005081;28;11452;-72
2021/12/10 08:55:44;;;;;;;;;12.00;8.50;;;;;3.57;86.64;99125.38;5004453;28;11546;-72
2021/12/10 08:58:13;;;;;;;;;9.50;7.75;;;;;3.57;86.95;99126.22;5000950;28;11459;-72
2021/12/10 09:00:43;;;;;;;;;6.00;5.75;;;;;3.54;87.40;99128.44;5001352;28;11555;-71
2021/12/10 09:03:12;;;;;;;;;11.00;7.00;;;;;3.55;86.88;99132.78;4996384;28;11542;-72
2021/12/10 09:05:39;;;;;;;;;3.25;3.00;;;;;3.63;87.20;99138.84;5006452;28;11471;-72
2021/12/10 09:08:05;;;;;;;;;8.75;7.50;;;;;3.60;87.04;99146.41;5001541;28;11469;-71
2021/12/10 09:10:36;;;;;;;;;6.50;4.75;;;;;3.64;86.99;99148.53;5015645;28;11495;-72
2021/12/10 09:13:09;;;;;;;;;4.50;4.00;;;;;3.62;86.66;99152.41;5002568;28;11664;-72
2021/12/10 09:15:36;;;;;;;;;12.25;9.00;;;;;3.59;86.90;99147.44;5005627;28;11550;-72
2021/12/10 09:18:05;;;;;;;;;4.00;4.00;;;;;3.63;86.92;99146.03;5000888;28;11562;-73
2021/12/10 09:20:38;;;;;;;;;6.00;6.00;;;;;3.67;86.44;99152.69;5003638;28;11441;-72
2021/12/10 09:23:08;;;;;;;;;5.75;5.25;;;;;3.65;86.10;99152.03;5002425;28;11516;-72
2021/12/10 09:25:36;;;;;;;;;6.75;5.50;;;;;3.64;86.34;99151.22;4999171;28;11433;-72
2021/12/10 09:28:04;;;;;;;;;2.00;2.00;;;;;3.73;86.44;99159.16;5015869;28;11621;-72
2021/12/10 09:30:33;;;;;;;;;5.75;5.75;;;;;3.71;85.98;99153.97;5031344;28;11528;-71
2021/12/10 09:33:00;;;;;;;;;7.00;5.00;;;;;3.66;86.44;99167.91;5002263;28;11469;-70
2021/12/10 09:35:29;;;;;;;;;3.00;3.00;;;;;3.72;86.54;99158.31;5015233;28;11461;-71
2021/12/10 09:37:55;;;;;;;;;8.25;6.00;;;;;3.71;86.38;99162.00;5004266;28;11460;-71
2021/12/10 09:40:31;;;;;;;;;5.00;5.00;;;;;3.76;86.45;99175.66;5018792;28;11467;-70
2021/12/10 09:42:59;;;;;;;;;3.50;3.50;;;;;3.74;86.48;99169.66;5006561;28;11485;-72
2021/12/10 09:45:29;;;;;;;;;5.00;4.00;;;;;3.74;86.77;99176.88;5019363;28;11594;-72
2021/12/10 09:47:56;;;;;;;;;6.00;4.00;;;;;3.73;86.84;99178.72;5004499;28;11478;-72
2021/12/10 09:50:27;;;;;;;;;7.00;5.50;;;;;3.71;86.68;99178.88;5003040;28;11905;-72
2021/12/10 09:52:55;;;;;;;;;4.00;4.00;;;;;3.79;87.15;99185.16;5002973;28;11523;-72
2021/12/10 09:55:23;;;;;;;;;7.75;6.00;;;;;3.80;87.13;99184.16;5004639;28;11477;-72
2021/12/10 09:57:51;;;;;;;;;7.00;5.50;;;;;3.75;87.22;99186.56;5018197;28;11481;-71
2021/12/10 10:00:27;;;;;;;;;8.00;5.25;;;;;3.73;87.15;99184.06;5002113;28;12199;-71
2021/12/10 10:02:55;;;;;;;;;5.00;4.00;;;;;3.65;87.64;99187.66;5003083;28;11545;-72
2021/12/10 10:05:26;;;;;;;;;6.00;6.00;;;;;3.66;87.64;99191.16;5005118;28;11512;-72
2021/12/10 10:08:00;;;;;;;;;6.25;2.00;;;;;3.70;87.77;99190.59;5008216;28;11208;-71
2021/12/10 10:10:28;;;;;;;;;5.00;4.00;;;;;3.78;87.65;99203.06;5003505;28;11459;-72
2021/12/10 10:12:56;;;;;;;;;4.75;3.50;;;;;3.69;87.45;99196.97;5002543;28;11149;-71
2021/12/10 10:15:27;;;;;;;;;5.00;4.00;;;;;3.74;87.76;99191.09;5019638;28;11470;-71
2021/12/10 10:18:00;;;;;;;;;5.50;5.50;;;;;3.81;87.96;99186.63;5011888;28;11520;-72
2021/12/10 10:20:30;;;;;;;;;6.00;5.00;;;;;3.88;88.33;99184.03;5012115;28;11540;-71
2021/12/10 10:22:56;;;;;;;;;8.00;5.00;;;;;3.79;88.03;99186.00;5002888;28;11486;-72
2021/12/10 10:25:30;;;;;;;;;4.75;4.75;;;;;3.82;87.58;99190.13;5010835;28;11450;-70
2021/12/10 10:27:57;;;;;;;;;4.75;4.75;;;;;3.91;87.95;99187.16;5012088;28;11572;-72
2021/12/10 10:30:30;;;;;;;;;5.75;4.75;;;;;4.51;91.77;99187.84;5002217;28;11476;-72
2021/12/10 10:33:01;;;;;;;;;5.00;5.00;;;;;4.04;86.47;99186.50;5000801;28;11464;-72
2021/12/10 10:35:36;;;;;;;;;6.25;6.25;;;;;4.22;87.04;99183.44;5003824;28;11452;-72
2021/12/10 10:38:08;;;;;;;;;8.00;8.00;;;;;4.05;85.78;99184.66;5000319;28;13291;-72
2021/12/10 10:40:39;;;;;;;;;5.75;5.00;;;;;4.08;86.35;99182.44;5008758;28;11457;-72
2021/12/10 10:43:06;;;;;;;;;8.75;5.00;;;;;4.02;85.91;99180.53;5007355;28;11550;-71
2021/12/10 10:45:36;;;;;;;;;6.00;6.00;;;;;4.08;86.37;99178.94;5017193;28;11483;-72
2021/12/10 10:48:05;;;;;;;;;6.00;6.00;;;;;4.03;86.02;99186.69;5010113;28;11588;-73
2021/12/10 10:50:45;;;;;;;;;15.50;9.25;;;;;3.97;86.56;99189.13;5013212;28;11567;-72
2021/12/10 10:53:14;;;;;;;;;9.00;7.50;;;;;4.11;86.28;99191.94;5026168;28;11485;-73
2021/12/10 10:55:55;;;;;;;;;8.25;7.00;;;;;4.08;86.20;99190.47;5000204;28;11465;-72
2021/12/10 10:58:25;;;;;;;;;9.50;6.00;;;;;4.13;86.06;99196.09;5010689;28;11328;-72
2021/12/10 11:01:03;;;;;;;;;7.25;5.50;;;;;4.17;85.82;99197.38;5023816;28;11444;-72
2021/12/10 11:03:46;;;;;;;;;6.00;6.00;;;;;4.19;85.90;99203.34;4994986;28;11614;-72
2021/12/10 11:06:17;;;;;;;;;7.00;7.00;;;;;4.19;85.29;99195.31;5014363;28;11453;-72
2021/12/10 11:08:48;;;;;;;;;12.00;9.00;;;;;4.22;85.93;99194.16;4999485;28;11142;-72
2021/12/10 11:11:26;;;;;;;;;8.00;7.00;;;;;4.22;85.43;99196.81;5020727;28;11457;-72
2021/12/10 11:14:13;;;;;;;;;12.00;6.00;;;;;4.23;85.46;99193.13;4997392;28;11549;-71
2021/12/10 11:16:42;;;;;;;;;9.75;9.75;;;;;4.18;85.52;99190.16;4995239;28;11463;-72
2021/12/10 11:19:12;;;;;;;;;8.50;8.00;;;;;4.14;85.54;99196.91;5008382;28;11641;-71
2021/12/10 11:21:52;;;;;;;;;9.50;8.25;;;;;4.13;85.23;99200.63;5009653;28;11545;-71
2021/12/10 11:24:46;;;;;;;;;12.00;8.50;;;;;4.17;85.78;99196.53;5010564;28;11544;-72
2021/12/10 11:27:24;;;;;;;;;6.25;6.00;;;;;4.17;85.73;99197.38;5016414;28;11519;-73
2021/12/10 11:30:04;;;;;;;;;12.00;7.50;;;;;4.25;85.94;99193.75;5007540;28;12311;-70
2021/12/10 11:32:38;;;;;;;;;9.00;6.75;;;;;4.32;86.08;99187.44;5008760;28;11454;-72
2021/12/10 11:35:34;;;;;;;;;5.75;5.25;;;;;4.32;86.11;99191.97;5002480;28;11528;-71
2021/12/10 11:38:14;;;;;;;;;7.00;7.00;;;;;4.33;85.83;99205.19;5005292;28;11335;-73
2021/12/10 11:40:58;;;;;;;;;8.75;8.25;;;;;4.32;85.58;99210.72;5006368;28;11451;-73
2021/12/10 11:46:43;;;;;;;;;7.50;7.50;;;;;4.33;85.91;99218.56;5008307;28;12246;-73
2021/12/10 11:49:27;;;;;;;;;7.75;7.25;;;;;4.37;85.84;99208.31;5001311;28;11553;-72
2021/12/10 11:52:06;;;;;;;;;13.50;9.25;;;;;4.36;85.69;99211.19;4992968;28;11311;-72
2021/12/10 11:54:38;;;;;;;;;12.75;11.25;;;;;4.39;86.00;99211.63;5007787;28;11480;-73
2021/12/10 11:57:10;;;;;;;;;10.75;9.75;;;;;4.59;88.46;99214.53;5006751;28;11569;-74
2021/12/10 11:59:48;;;;;;;;;9.00;9.00;;;;;4.75;87.02;99214.28;4996142;28;11581;-73
2021/12/10 12:02:20;;;;;;;;;16.75;12.25;;;;;4.51;86.17;99218.16;5017320;28;11506;-73
2021/12/10 12:04:51;;;;;;;;;8.00;8.00;;;;;4.50;86.09;99218.34;5007447;28;11591;-73